Time;durP1;ratioP1;P1;durP2;ratioP2;P2;SDS_P1;SDS_P2;PMS_P1;PMS_P2;Temp;Humidity;BMP_temperature;BMP_pressure;BME280_temperature;BME280_humidity;BME280_pressure;Samples;Min_cycle;Max_cycle;Signal;HPM_P1;HPM_P2
2021/06/12 00:00:19;;;;;;;2.30;2.10;;;;;;;28.98;28.57;94426.44;5038222;28;20380;-70
2021/06/12 00:02:47;;;;;;;2.53;2.22;;;;;;;29.60;27.15;94422.59;5021815;28;20379;-69
2021/06/12 00:05:14;;;;;;;3.05;2.25;;;;;;;29.41;27.40;94432.06;5019383;28;20084;-58
2021/06/12 00:07:41;;;;;;;4.65;2.03;;;;;;;29.82;26.93;94423.81;5019638;28;20041;-69
2021/06/12 00:10:12;;;;;;;2.47;2.22;;;;;;;29.52;27.02;94416.53;5016217;28;20067;-51
2021/06/12 00:12:39;;;;;;;3.28;2.00;;;;;;;29.51;26.96;94417.72;5034266;28;20049;-69
2021/06/12 00:15:10;;;;;;;2.72;2.33;;;;;;;29.49;27.10;94421.97;5022589;28;20050;-66
2021/06/12 00:17:37;;;;;;;3.87;2.33;;;;;;;29.92;26.46;94425.56;5015837;28;20453;-58
2021/06/12 00:20:08;;;;;;;3.22;1.90;;;;;;;29.22;27.25;94420.00;5016174;28;20467;-61
2021/06/12 00:22:35;;;;;;;;;;;;;;;29.43;26.78;94414.34;5015758;28;20053;-69
2021/06/12 00:25:03;;;;;;;3.03;2.25;;;;;;;29.52;27.03;94415.78;5015812;28;20312;-66
2021/06/12 00:27:30;;;;;;;2.47;2.05;;;;;;;29.46;26.71;94408.16;5015342;28;20365;-55
2021/06/12 00:29:57;;;;;;;4.50;2.13;;;;;;;29.56;26.91;94416.50;5016746;28;20054;-66
2021/06/12 00:32:25;;;;;;;3.72;2.40;;;;;;;29.00;27.80;94421.41;5019164;28;20377;-52
2021/06/12 00:34:52;;;;;;;2.30;2.00;;;;;;;29.41;27.41;94410.53;5014884;28;20050;-63
2021/06/12 00:37:19;;;;;;;2.65;2.40;;;;;;;29.29;27.79;94414.50;5015135;28;20041;-54
2021/06/12 00:39:46;;;;;;;2.30;1.90;;;;;;;29.44;27.58;94410.50;5015596;28;20369;-67
2021/06/12 00:42:14;;;;;;;2.20;1.98;;;;;;;29.16;27.99;94410.84;5014833;28;20049;-67
2021/06/12 00:44:41;;;;;;;3.05;2.28;;;;;;;29.84;26.67;94399.91;5015153;28;20049;-57
2021/06/12 00:47:08;;;;;;;2.90;2.28;;;;;;;29.84;26.53;94410.69;5013877;28;20053;-53
2021/06/12 00:49:35;;;;;;;4.40;2.40;;;;;;;29.73;27.06;94405.47;5014622;28;20566;-52
2021/06/12 00:52:02;;;;;;;4.25;2.40;;;;;;;29.11;28.22;94411.25;5020766;28;20045;-55
2021/06/12 00:54:30;;;;;;;2.38;1.98;;;;;;;29.39;27.70;94410.91;5028336;28;20388;-70
2021/06/12 00:56:58;;;;;;;2.80;2.10;;;;;;;29.24;28.21;94414.19;5014971;28;20061;-54
2021/06/12 00:59:25;;;;;;;4.97;2.30;;;;;;;29.33;28.02;94407.13;5015051;28;20499;-67
2021/06/12 01:01:52;;;;;;;3.92;2.42;;;;;;;29.56;27.61;94411.09;5034089;28;20059;-53
2021/06/12 01:04:19;;;;;;;3.10;2.17;;;;;;;29.17;28.25;94420.44;5034921;28;20440;-56
2021/06/12 01:06:50;;;;;;;3.85;2.05;;;;;;;29.50;27.84;94410.03;5034231;28;20080;-60
2021/06/12 01:09:23;;;;;;;4.10;2.22;;;;;;;28.83;28.91;94415.78;5034941;28;20336;-55
2021/06/12 01:12:22;;;;;;;3.63;2.13;;;;;;;29.39;27.47;94410.91;5035101;28;20049;-53
2021/06/12 01:14:53;;;;;;;3.85;2.45;;;;;;;28.92;28.35;94419.97;5025936;28;20492;-53
2021/06/12 01:17:27;;;;;;;4.32;2.30;;;;;;;29.10;28.28;94423.19;5014787;28;20357;-54
2021/06/12 01:20:21;;;;;;;3.10;2.50;;;;;;;29.27;28.03;94427.59;5040580;28;20436;-58
2021/06/12 01:22:48;;;;;;;2.55;2.20;;;;;;;29.39;27.83;94418.97;5034489;28;20053;-60
2021/06/12 01:25:31;;;;;;;3.58;2.25;;;;;;;29.17;28.03;94423.13;5034449;28;20041;-63
2021/06/12 01:28:08;;;;;;;3.40;2.50;;;;;;;29.17;28.10;94425.81;5033219;28;20056;-55
2021/06/12 01:30:36;;;;;;;3.92;2.53;;;;;;;29.48;27.78;94425.84;5032592;28;20472;-58
2021/06/12 01:33:07;;;;;;;3.05;2.75;;;;;;;29.16;28.27;94432.38;5033870;28;20325;-64
2021/06/12 01:35:38;;;;;;;2.90;2.33;;;;;;;29.10;28.45;94433.97;5034024;28;20054;-55
2021/06/12 01:38:06;;;;;;;3.35;2.58;;;;;;;29.52;27.49;94430.00;5033216;28;20061;-59
2021/06/12 01:40:36;;;;;;;3.92;2.45;;;;;;;29.37;28.14;94434.78;5034164;28;20057;-59
2021/06/12 01:43:08;;;;;;;3.50;2.83;;;;;;;28.97;28.68;94435.66;5033614;28;20052;-54
2021/06/12 01:45:35;;;;;;;4.70;2.50;;;;;;;28.86;28.68;94436.53;5033260;28;20053;-64
2021/06/12 01:48:03;;;;;;;5.18;2.53;;;;;;;28.63;28.93;94436.38;5033039;28;20060;-56
2021/06/12 01:50:30;;;;;;;2.60;2.40;;;;;;;29.58;27.47;94436.47;5034292;28;20041;-69
2021/06/12 01:52:58;;;;;;;3.38;2.30;;;;;;;29.10;28.12;94444.72;5034227;28;20057;-65
2021/06/12 01:55:30;;;;;;;2.25;2.05;;;;;;;29.34;27.41;94451.75;5021816;28;20053;-59
2021/06/12 01:58:02;;;;;;;5.00;2.00;;;;;;;29.34;27.53;94437.50;5029895;28;20058;-63
2021/06/12 02:00:29;;;;;;;2.25;2.03;;;;;;;29.46;26.74;94440.47;5025225;28;20052;-58
2021/06/12 02:02:58;;;;;;;2.33;2.10;;;;;;;29.22;27.21;94446.91;5038331;28;20045;-53
2021/06/12 02:05:26;;;;;;;2.50;1.90;;;;;;;29.34;26.74;94446.34;5029552;28;20045;-53
2021/06/12 02:07:55;;;;;;;2.25;1.80;;;;;;;29.51;26.44;94441.19;5024994;28;20278;-51
2021/06/12 02:10:28;;;;;;;3.25;1.88;;;;;;;28.97;27.56;94449.13;5033746;28;20045;-58
2021/06/12 02:12:56;;;;;;;2.30;1.92;;;;;;;29.33;26.92;94450.22;5018451;28;20049;-65
2021/06/12 02:15:25;;;;;;;2.35;1.70;;;;;;;29.17;27.11;94441.97;5017991;28;20054;-52
2021/06/12 02:17:53;;;;;;;4.68;1.90;;;;;;;29.31;26.58;94447.16;5033258;28;20054;-69
2021/06/12 02:20:21;;;;;;;3.95;2.05;;;;;;;29.08;27.02;94439.00;5016831;28;20056;-70
2021/06/12 02:22:52;;;;;;;1.85;1.63;;;;;;;29.14;26.85;94440.81;5029888;28;20380;-68
2021/06/12 02:25:20;;;;;;;4.53;1.85;;;;;;;28.82;27.19;94435.78;5026896;28;20045;-67
2021/06/12 02:27:51;;;;;;;3.17;2.25;;;;;;;28.72;27.33;94433.22;5033097;28;20453;-65
2021/06/12 02:30:20;;;;;;;5.77;1.70;;;;;;;29.03;26.97;94439.44;5039304;28;20057;-69
2021/06/12 02:32:51;;;;;;;2.20;1.70;;;;;;;28.66;27.54;94443.66;5037952;28;20057;-66
2021/06/12 02:35:18;;;;;;;2.55;1.60;;;;;;;29.19;27.15;94442.34;5031105;28;20754;-66
2021/06/12 02:37:46;;;;;;;2.15;1.80;;;;;;;28.66;27.74;94443.66;5026700;28;20049;-69
2021/06/12 02:40:13;;;;;;;2.13;1.90;;;;;;;28.82;27.55;94441.16;5017522;28;20050;-68
2021/06/12 02:42:40;;;;;;;2.42;1.80;;;;;;;28.90;27.28;94441.13;5017893;28;20057;-69
2021/06/12 02:45:09;;;;;;;3.40;1.88;;;;;;;28.80;27.25;94446.19;5017474;28;20053;-66
2021/06/12 02:47:55;;;;;;;2.10;1.90;;;;;;;28.74;27.42;94455.84;5017343;28;20049;-61
2021/06/12 02:50:27;;;;;;;2.80;1.80;;;;;;;28.16;27.63;94446.75;5033365;28;20458;-72
2021/06/12 02:52:54;;;;;;;;;;;;;;;27.92;28.28;94442.34;5037711;28;20068;-64
2021/06/12 02:55:21;;;;;;;3.03;1.80;;;;;;;28.49;27.31;94441.88;5026234;28;19913;-74
2021/06/12 02:57:50;;;;;;;2.58;2.05;;;;;;;27.91;28.07;94444.25;5043466;28;20053;-62
2021/06/12 03:00:18;;;;;;;2.20;1.90;;;;;;;28.77;26.86;94441.59;5035772;28;20056;-66
2021/06/12 03:02:46;;;;;;;3.67;2.00;;;;;;;28.57;26.87;94437.97;5037486;28;20072;-72
2021/06/12 03:05:19;;;;;;;2.08;1.80;;;;;;;28.84;26.92;94444.22;5036626;28;20049;-56
2021/06/12 03:07:50;;;;;;;2.10;1.90;;;;;;;29.00;26.58;94453.69;5015895;28;20084;-59
2021/06/12 03:10:18;;;;;;;2.85;1.90;;;;;;;28.42;27.62;94448.09;5031439;28;20041;-60
2021/06/12 03:12:47;;;;;;;2.72;2.00;;;;;;;28.64;27.29;94448.66;5032085;28;20361;-56
2021/06/12 03:15:16;;;;;;;2.67;1.83;;;;;;;28.40;27.56;94452.34;5032373;28;20049;-50
2021/06/12 03:17:47;;;;;;;6.88;2.05;;;;;;;28.15;28.49;94457.91;5032082;28;20061;-52
2021/06/12 03:20:17;;;;;;;3.20;2.00;;;;;;;27.74;28.98;94460.47;5030443;22;20054;-53
2021/06/12 03:22:47;;;;;;;2.80;2.00;;;;;;;27.82;28.51;94465.41;5054832;28;20446;-56
2021/06/12 03:25:16;;;;;;;1.92;1.73;;;;;;;28.54;27.57;94457.59;5056915;28;20061;-63
2021/06/12 03:27:50;;;;;;;3.10;2.17;;;;;;;27.87;28.95;94466.94;5072109;28;20055;-56
2021/06/12 03:30:17;;;;;;;2.60;2.15;;;;;;;27.60;29.11;94467.44;5055966;28;20371;-57
2021/06/12 03:32:46;;;;;;;4.88;2.10;;;;;;;27.95;28.22;94465.72;5086135;28;20055;-69
2021/06/12 03:35:13;;;;;;;2.67;2.15;;;;;;;28.50;27.14;94457.63;5075764;28;20358;-70
2021/06/12 03:37:42;;;;;;;2.35;2.13;;;;;;;28.04;28.05;94460.66;5075507;28;20049;-62
2021/06/12 03:40:12;;;;;;;2.72;2.10;;;;;;;28.14;28.24;94467.88;5076094;28;20049;-65
2021/06/12 03:42:44;;;;;;;5.53;2.25;;;;;;;28.11;28.57;94462.53;5075850;28;20059;-61
2021/06/12 03:45:16;;;;;;;4.30;2.17;;;;;;;27.91;28.51;94464.97;5075443;28;20052;-58
2021/06/12 03:47:45;;;;;;;5.07;2.33;;;;;;;28.02;28.83;94471.03;5076419;28;20044;-65
2021/06/12 03:50:13;;;;;;;3.83;2.03;;;;;;;28.06;28.76;94469.06;5074210;28;20059;-63
2021/06/12 03:52:41;;;;;;;2.75;2.10;;;;;;;27.69;29.32;94468.94;5074545;28;20040;-59
2021/06/12 03:55:09;;;;;;;3.60;1.90;;;;;;;27.97;28.73;94473.38;5092004;28;20048;-57
2021/06/12 03:57:38;;;;;;;3.08;2.20;;;;;;;27.93;28.61;94468.78;5091654;28;20051;-65
2021/06/12 04:00:10;;;;;;;2.53;2.20;;;;;;;28.08;28.54;94464.06;5074880;28;20068;-57
2021/06/12 04:02:40;;;;;;;2.60;2.20;;;;;;;28.18;28.30;94465.16;5075451;28;20059;-70
2021/06/12 04:05:11;;;;;;;2.92;2.30;;;;;;;28.50;28.29;94456.84;5076105;28;20052;-57
2021/06/12 04:07:48;;;;;;;4.43;2.20;;;;;;;27.73;29.44;94464.31;5075854;28;20047;-60
2021/06/12 04:10:15;;;;;;;2.83;2.42;;;;;;;28.03;28.92;94459.13;5075642;28;20044;-58
2021/06/12 04:12:43;;;;;;;3.67;2.65;;;;;;;28.19;28.41;94467.47;5075355;28;20040;-57
2021/06/12 04:15:12;;;;;;;2.67;2.13;;;;;;;28.59;27.93;94470.59;5075814;28;20048;-66
2021/06/12 04:17:40;;;;;;;3.65;2.08;;;;;;;28.29;29.07;94467.78;5075678;28;20048;-64
2021/06/12 04:20:10;;;;;;;3.10;2.00;;;;;;;29.18;27.63;94478.50;5074346;28;20036;-54
2021/06/12 04:22:38;;;;;;;2.35;2.10;;;;;;;28.61;28.26;94478.25;5063135;28;20379;-58
2021/06/12 04:25:06;;;;;;;2.92;2.28;;;;;;;28.93;27.64;94478.75;5055561;28;20051;-70
2021/06/12 04:27:33;;;;;;;3.30;2.35;;;;;;;28.42;28.05;94474.22;5055566;28;20451;-56
2021/06/12 04:30:01;;;;;;;3.20;2.00;;;;;;;28.76;28.37;94480.44;5055066;28;20491;-68
2021/06/12 04:32:29;;;;;;;2.97;2.15;;;;;;;28.62;28.63;94480.56;5055227;28;20051;-61
2021/06/12 04:34:56;;;;;;;2.65;2.15;;;;;;;29.66;27.10;94485.59;5053995;28;20049;-66
2021/06/12 04:37:23;;;;;;;2.95;2.17;;;;;;;27.32;30.74;94478.28;5055692;28;20048;-59
2021/06/12 04:39:51;;;;;;;2.65;2.30;;;;;;;28.19;29.57;94480.91;5057552;28;20055;-50
2021/06/12 04:42:19;;;;;;;13.90;2.97;;;;;;;29.06;28.54;94477.06;5055596;28;20049;-49
2021/06/12 04:44:52;;;;;;;4.60;2.15;;;;;;;29.04;28.40;94478.63;5055128;28;20056;-62
2021/06/12 04:47:19;;;;;;;2.67;2.10;;;;;;;29.37;27.41;94474.41;5060720;28;20079;-43
2021/06/12 04:49:46;;;;;;;3.30;2.42;;;;;;;29.20;28.42;94481.53;5054096;28;20417;-50
2021/06/12 04:52:13;;;;;;;2.80;2.15;;;;;;;29.51;27.30;94478.88;5053891;28;20049;-45
2021/06/12 04:54:40;;;;;;;2.60;2.30;;;;;;;29.27;27.72;94486.06;5054971;28;20040;-57
2021/06/12 04:57:07;;;;;;;3.70;2.40;;;;;;;29.55;27.32;94495.75;5063905;28;20371;-55
2021/06/12 04:59:35;;;;;;;2.47;2.28;;;;;;;29.56;26.93;94495.34;5073625;28;20048;-57
2021/06/12 05:02:02;;;;;;;3.50;2.65;;;;;;;29.45;27.36;94495.50;5054797;28;20422;-54
2021/06/12 05:04:29;;;;;;;2.95;2.30;;;;;;;29.31;27.41;94497.56;5054820;28;20325;-56
2021/06/12 05:06:56;;;;;;;2.85;2.40;;;;;;;29.60;27.24;94498.00;5054774;28;20048;-54
2021/06/12 05:09:23;;;;;;;2.70;2.47;;;;;;;29.67;27.14;94495.22;5054640;28;20048;-56
2021/06/12 05:11:51;;;;;;;3.05;2.10;;;;;;;30.20;27.30;94499.13;5054035;28;20044;-60
2021/06/12 05:14:19;;;;;;;3.25;2.58;;;;;;;29.73;27.13;94502.44;5057374;28;20075;-45
2021/06/12 05:16:46;;;;;;;4.38;2.80;;;;;;;29.55;27.09;94501.91;5054608;28;20272;-58
2021/06/12 05:19:13;;;;;;;3.22;2.38;;;;;;;29.79;26.35;94510.84;5054786;28;20053;-40
2021/06/12 05:21:45;;;;;;;2.83;2.40;;;;;;;29.67;26.79;94501.38;5055121;28;20053;-50
2021/06/12 05:24:13;;;;;;;3.60;2.28;;;;;;;30.05;26.58;94515.50;5075085;28;20052;-51
2021/06/12 05:26:41;;;;;;;3.42;2.42;;;;;;;29.93;26.49;94510.66;5074542;28;20082;-42
2021/06/12 05:29:08;;;;;;;3.15;2.70;;;;;;;30.37;26.72;94511.56;5074346;28;20055;-48
2021/06/12 05:31:35;;;;;;;4.65;3.20;;;;;;;29.81;27.23;94508.50;5072971;28;20532;-48
2021/06/12 05:34:03;;;;;;;3.20;2.72;;;;;;;29.74;27.63;94513.97;5054033;28;20049;-41
2021/06/12 05:36:33;;;;;;;4.78;2.40;;;;;;;30.38;26.66;94518.47;5054527;28;20048;-42
2021/06/12 05:39:01;;;;;;;4.10;2.47;;;;;;;30.51;27.07;94518.66;5054764;28;20052;-45
2021/06/12 05:41:28;;;;;;;4.30;2.70;;;;;;;31.08;25.94;94515.78;5053773;28;20057;-50
2021/06/12 05:43:55;;;;;;;4.88;2.50;;;;;;;30.36;26.88;94518.13;5053352;28;20055;-43
2021/06/12 05:46:22;;;;;;;7.30;2.78;;;;;;;30.50;27.31;94519.84;5054375;28;20364;-46
2021/06/12 05:48:49;;;;;;;12.68;3.83;;;;;;;31.03;26.66;94513.56;5052125;28;20049;-50
2021/06/12 05:51:17;;;;;;;22.40;3.60;;;;;;;30.39;26.80;94520.00;5071367;28;20459;-56
2021/06/12 05:53:44;;;;;;;6.55;3.00;;;;;;;30.41;26.98;94517.66;5055732;28;20049;-53
2021/06/12 05:56:11;;;;;;;8.57;2.58;;;;;;;30.53;26.30;94522.47;5054331;28;20474;-53
2021/06/12 05:58:38;;;;;;;3.38;2.83;;;;;;;30.84;26.29;94509.66;5054319;28;20048;-59
2021/06/12 06:01:08;;;;;;;3.58;2.53;;;;;;;30.30;26.85;94511.69;5053659;28;20049;-53
2021/06/12 06:03:35;;;;;;;3.50;2.88;;;;;;;30.24;27.23;94516.00;5053929;28;20080;-51
2021/06/12 06:06:03;;;;;;;4.18;2.55;;;;;;;30.62;26.64;94517.34;5054309;28;20057;-53
2021/06/12 06:08:31;;;;;;;3.08;2.75;;;;;;;30.25;27.70;94512.13;5054299;28;20059;-60
2021/06/12 06:10:58;;;;;;;3.60;2.75;;;;;;;30.33;27.12;94508.91;5053533;28;20053;-53
2021/06/12 06:13:31;;;;;;;3.08;2.67;;;;;;;30.58;26.45;94513.91;5054139;28;20052;-65
2021/06/12 06:15:58;;;;;;;3.55;2.85;;;;;;;30.91;26.25;94506.06;5053467;28;20041;-51
2021/06/12 06:18:26;;;;;;;2.50;2.30;;;;;;;30.66;27.44;94512.66;5053304;28;20045;-57
2021/06/12 06:20:53;;;;;;;3.30;2.70;;;;;;;31.00;26.00;94509.00;5061116;28;20073;-56
2021/06/12 06:23:20;;;;;;;5.00;2.80;;;;;;;30.60;27.23;94514.28;5073656;28;20375;-51
2021/06/12 06:25:48;;;;;;;4.25;2.58;;;;;;;31.20;26.27;94504.38;5073792;28;20040;-59
2021/06/12 06:28:15;;;;;;;3.65;2.88;;;;;;;30.80;26.68;94508.94;5065691;28;20387;-55
2021/06/12 06:30:42;;;;;;;4.65;3.10;;;;;;;30.60;26.90;94503.50;5053379;28;20045;-62
2021/06/12 06:33:10;;;;;;;2.97;2.65;;;;;;;31.32;25.91;94507.66;5054090;28;20053;-53
2021/06/12 06:35:37;;;;;;;4.35;2.80;;;;;;;31.62;26.04;94504.72;5053962;28;20056;-60
2021/06/12 06:38:05;;;;;;;3.13;2.83;;;;;;;31.30;26.23;94508.06;5053827;28;20048;-56
2021/06/12 06:40:34;;;;;;;4.18;2.78;;;;;;;31.27;25.75;94512.38;5053240;28;20324;-62
2021/06/12 06:43:01;;;;;;;2.97;2.70;;;;;;;31.72;24.82;94506.47;5053846;28;20064;-54
2021/06/12 06:45:31;;;;;;;3.03;2.72;;;;;;;32.36;24.86;94496.97;5055788;28;20040;-53
2021/06/12 06:47:59;;;;;;;5.60;3.50;;;;;;;32.66;24.71;94497.78;5057050;28;20364;-56
2021/06/12 06:50:26;;;;;;;5.38;3.10;;;;;;;32.63;24.49;94510.22;5056119;28;20048;-52
2021/06/12 06:52:53;;;;;;;3.35;2.83;;;;;;;32.80;24.41;94505.59;5057295;28;20079;-53
2021/06/12 06:55:21;;;;;;;7.43;2.92;;;;;;;32.74;24.85;94499.88;5057609;28;20436;-52
2021/06/12 06:57:48;;;;;;;3.75;3.17;;;;;;;32.73;24.09;94503.78;5057071;28;20044;-58
2021/06/12 07:00:16;;;;;;;4.45;2.88;;;;;;;32.77;23.87;94509.09;5056648;28;20399;-55
2021/06/12 07:02:43;;;;;;;7.00;3.40;;;;;;;32.82;23.54;94503.22;5057163;28;20075;-56
2021/06/12 07:05:10;;;;;;;3.13;2.80;;;;;;;33.20;22.93;94508.78;5057334;28;20049;-53
2021/06/12 07:07:37;;;;;;;3.20;2.83;;;;;;;33.01;22.97;94499.59;5057089;28;20363;-54
2021/06/12 07:10:05;;;;;;;4.53;2.67;;;;;;;33.28;23.21;94503.91;5056639;28;20444;-64
2021/06/12 07:12:32;;;;;;;4.03;2.90;;;;;;;33.65;22.37;94495.16;5057201;28;20359;-58
2021/06/12 07:14:59;;;;;;;3.13;2.60;;;;;;;33.50;23.13;94494.03;5057151;28;20048;-55
2021/06/12 07:17:27;;;;;;;3.38;2.72;;;;;;;33.82;23.17;94498.53;5056897;28;20049;-54
2021/06/12 07:20:07;;;;;;;3.08;2.63;;;;;;;33.41;23.17;94499.34;5075298;28;20056;-59
2021/06/12 07:22:34;;;;;;;;;;;;;;;33.86;22.13;94487.63;5077340;28;20064;-58
2021/06/12 07:25:02;;;;;;;2.97;2.72;;;;;;;33.63;23.16;94492.13;5062557;28;19916;-58
2021/06/12 07:27:29;;;;;;;5.22;2.50;;;;;;;33.59;22.48;94486.06;5056987;28;20055;-55
2021/06/12 07:29:56;;;;;;;4.65;2.70;;;;;;;34.25;21.27;94492.59;5055020;28;20654;-54
2021/06/12 07:32:23;;;;;;;2.70;2.38;;;;;;;33.67;22.30;94487.34;5056708;28;20490;-54
2021/06/12 07:34:50;;;;;;;2.45;2.25;;;;;;;34.32;21.70;94492.38;5056526;28;20044;-52
2021/06/12 07:37:18;;;;;;;2.88;2.58;;;;;;;33.92;21.55;94485.88;5076652;28;20450;-53
2021/06/12 07:39:45;;;;;;;6.40;2.80;;;;;;;34.66;21.75;94482.03;5075784;28;20044;-54
2021/06/12 07:42:12;;;;;;;5.72;2.70;;;;;;;34.90;21.03;94480.47;5076548;28;20079;-52
2021/06/12 07:44:39;;;;;;;2.60;2.40;;;;;;;34.50;21.32;94474.78;5076466;28;20052;-57
2021/06/12 07:47:06;;;;;;;3.30;2.72;;;;;;;34.87;21.44;94479.41;5066888;28;20056;-64
2021/06/12 07:49:33;;;;;;;3.55;2.72;;;;;;;34.70;21.80;94483.44;5055555;28;20060;-60
2021/06/12 07:52:00;;;;;;;3.75;2.83;;;;;;;35.41;20.49;94475.59;5055540;28;20056;-56
2021/06/12 07:54:27;;;;;;;3.40;2.67;;;;;;;34.88;21.86;94478.19;5056397;28;20052;-55
2021/06/12 07:57:02;;;;;;;2.70;2.50;;;;;;;34.76;22.46;94481.69;5055171;28;20052;-53
2021/06/12 07:59:29;;;;;;;2.60;2.40;;;;;;;35.56;20.74;94478.53;5054679;28;20049;-59
2021/06/12 08:01:57;;;;;;;3.45;2.47;;;;;;;36.11;20.26;94485.00;5056021;28;20412;-61
2021/06/12 08:04:24;;;;;;;3.00;2.78;;;;;;;35.95;20.06;94468.94;5056160;28;20056;-66
2021/06/12 08:06:52;;;;;;;4.95;2.60;;;;;;;36.27;20.12;94483.25;5055821;28;20060;-58
2021/06/12 08:09:19;;;;;;;2.50;2.30;;;;;;;35.92;20.76;94483.44;5055606;28;20056;-56
2021/06/12 08:11:46;;;;;;;2.83;2.47;;;;;;;36.72;19.72;94480.66;5055686;28;20052;-55
2021/06/12 08:14:13;;;;;;;3.25;2.95;;;;;;;36.35;20.04;94473.63;5056111;28;20432;-56
2021/06/12 08:16:40;;;;;;;3.22;2.80;;;;;;;36.03;19.50;94472.91;5055607;28;20383;-66
2021/06/12 08:19:07;;;;;;;18.77;17.10;;;;;;;36.77;19.22;94464.94;5055490;28;20049;-54
2021/06/12 08:21:36;;;;;;;8.70;5.57;;;;;;;36.28;19.73;94471.16;5054564;28;20063;-55
2021/06/12 08:24:04;;;;;;;5.03;2.95;;;;;;;36.64;19.11;94460.34;5055584;28;20045;-55
2021/06/12 08:26:31;;;;;;;2.83;2.53;;;;;;;36.37;19.11;94460.31;5055383;28;20456;-66
2021/06/12 08:28:59;;;;;;;3.25;2.50;;;;;;;36.52;19.35;94465.94;5055203;28;20345;-56
2021/06/12 08:31:26;;;;;;;2.70;2.50;;;;;;;36.37;19.08;94458.34;5055289;28;20049;-54
2021/06/12 08:33:53;;;;;;;4.18;2.40;;;;;;;35.93;19.34;94455.03;5055689;28;20051;-53
2021/06/12 08:36:21;;;;;;;3.03;2.28;;;;;;;36.59;18.15;94450.06;5055235;28;20041;-54
2021/06/12 08:38:48;;;;;;;2.60;2.38;;;;;;;36.97;18.68;94457.09;5055268;28;20068;-60
2021/06/12 08:41:16;;;;;;;2.30;2.10;;;;;;;36.72;19.58;94453.44;5054876;28;20041;-54
2021/06/12 08:43:43;;;;;;;3.33;2.70;;;;;;;36.37;19.02;94454.88;5054157;28;20048;-62
2021/06/12 08:46:14;;;;;;;3.05;2.70;;;;;;;36.81;19.77;94454.66;5055060;28;20052;-55
2021/06/12 08:48:42;;;;;;;3.00;2.70;;;;;;;35.67;19.67;94459.13;5054969;28;20056;-66
2021/06/12 08:51:10;;;;;;;2.78;2.47;;;;;;;36.02;19.76;94455.06;5053852;28;20049;-58
2021/06/12 08:53:37;;;;;;;3.17;2.30;;;;;;;36.60;19.51;94451.59;5055157;28;20075;-54
2021/06/12 08:56:04;;;;;;;3.20;2.40;;;;;;;36.89;18.63;94445.72;5054886;28;20379;-63
2021/06/12 08:58:31;;;;;;;7.05;6.35;;;;;;;37.15;18.64;94440.72;5054812;28;20041;-59
2021/06/12 09:00:58;;;;;;;9.93;8.93;;;;;;;37.09;18.98;94436.34;5054590;28;20067;-59
2021/06/12 09:03:28;;;;;;;6.07;4.00;;;;;;;36.86;19.03;94435.75;5054853;28;20048;-54
2021/06/12 09:05:57;;;;;;;3.95;3.00;;;;;;;36.94;19.05;94433.47;5054609;28;20052;-61
2021/06/12 09:08:32;;;;;;;2.60;2.40;;;;;;;36.92;18.78;94433.16;5054733;28;20052;-56
2021/06/12 09:11:19;;;;;;;2.80;2.60;;;;;;;36.99;19.41;94435.59;5054715;28;20072;-55
2021/06/12 09:14:26;;;;;;;3.10;2.80;;;;;;;37.16;18.72;94431.31;5054834;28;20036;-63
2021/06/12 09:16:55;;;;;;;2.50;2.30;;;;;;;37.14;18.92;94427.53;5032232;28;20814;-54
2021/06/12 09:19:22;;;;;;;5.28;2.40;;;;;;;37.40;18.75;94433.44;5032214;28;20153;-55
2021/06/12 09:21:56;;;;;;;3.65;2.40;;;;;;;37.34;18.26;94428.59;5048456;28;20053;-55
2021/06/12 09:24:24;;;;;;;5.38;2.60;;;;;;;37.20;18.52;94431.16;5033446;28;20157;-59
2021/06/12 09:26:59;;;;;;;4.07;2.40;;;;;;;37.81;18.08;94431.97;5032389;28;20088;-59
2021/06/12 09:29:46;;;;;;;3.28;2.30;;;;;;;37.57;18.52;94426.44;5031286;28;20532;-57
2021/06/12 09:32:21;;;;;;;2.88;2.20;;;;;;;37.44;18.62;94425.84;5032262;28;20444;-54
2021/06/12 09:35:10;;;;;;;5.13;2.40;;;;;;;36.88;18.21;94418.94;5032476;28;20045;-61
2021/06/12 09:37:37;;;;;;;3.35;2.40;;;;;;;37.29;17.78;94420.28;4992673;28;20050;-55
2021/06/12 09:40:16;;;;;;;3.50;2.00;;;;;;;37.21;17.57;94419.81;4992171;28;20461;-67
2021/06/12 09:42:50;;;;;;;2.35;2.08;;;;;;;37.33;17.52;94408.00;4992300;28;20054;-54
2021/06/12 09:45:23;;;;;;;2.40;2.20;;;;;;;37.04;18.25;94413.19;4993029;28;20454;-60
2021/06/12 09:47:51;;;;;;;6.53;4.90;;;;;;;37.38;17.81;94412.09;5001534;28;20145;-67
2021/06/12 09:50:21;;;;;;;6.80;6.10;;;;;;;37.35;17.69;94410.28;5013196;28;20049;-54
2021/06/12 09:52:52;;;;;;;6.15;2.97;;;;;;;37.04;18.08;94410.47;5012532;28;20050;-67
2021/06/12 09:55:28;;;;;;;3.00;2.33;;;;;;;37.13;17.62;94399.53;5012431;28;20049;-56
2021/06/12 09:57:58;;;;;;;2.38;1.90;;;;;;;37.46;17.54;94401.59;5012553;28;20053;-57
2021/06/12 10:00:35;;;;;;;2.92;2.28;;;;;;;37.15;18.46;94396.38;5011867;28;20053;-62
2021/06/12 10:03:03;;;;;;;2.65;2.10;;;;;;;37.02;17.49;94407.44;5012533;28;20045;-54
2021/06/12 10:05:30;;;;;;;4.18;2.08;;;;;;;36.79;17.64;94399.91;5012086;28;20415;-57
2021/06/12 10:07:57;;;;;;;2.30;1.70;;;;;;;36.80;17.72;94401.41;5012351;28;20056;-65
2021/06/12 10:10:25;;;;;;;3.92;2.20;;;;;;;36.70;18.08;94395.94;5011648;28;20145;-56
2021/06/12 10:12:52;;;;;;;2.55;1.90;;;;;;;37.51;17.27;94388.13;5012434;28;20342;-64
2021/06/12 10:15:22;;;;;;;2.47;1.85;;;;;;;36.83;18.13;94389.59;4996663;28;20507;-55
2021/06/12 10:17:51;;;;;;;2.60;2.20;;;;;;;36.49;17.84;94385.97;4995542;28;20054;-58
2021/06/12 10:20:22;;;;;;;2.75;2.05;;;;;;;36.43;17.78;94393.19;5012027;28;20053;-63
2021/06/12 10:22:51;;;;;;;2.20;2.00;;;;;;;36.54;17.35;94390.03;5016291;28;20049;-61
2021/06/12 10:25:20;;;;;;;5.97;1.92;;;;;;;36.27;18.03;94385.28;5016238;28;20046;-58
2021/06/12 10:27:48;;;;;;;2.10;1.67;;;;;;;36.86;17.92;94388.69;5031824;28;20348;-64
2021/06/12 10:30:20;;;;;;;3.10;1.98;;;;;;;37.09;17.29;94376.41;5057228;28;20044;-66
2021/06/12 10:32:52;;;;;;;2.17;1.83;;;;;;;36.91;18.12;94374.44;5073643;28;20510;-63
2021/06/12 10:35:22;;;;;;;2.65;1.83;;;;;;;37.21;17.70;94376.22;5057796;28;20056;-67
2021/06/12 10:38:17;;;;;;;3.92;1.95;;;;;;;36.90;18.34;94376.41;5057502;28;20052;-53
2021/06/12 10:40:46;;;;;;;2.40;1.70;;;;;;;37.34;17.18;94381.50;5057143;28;20044;-68
2021/06/12 10:43:25;;;;;;;2.20;1.92;;;;;;;37.37;17.08;94377.13;5057475;28;20052;-54
2021/06/12 10:46:08;;;;;;;3.08;1.80;;;;;;;37.34;16.90;94376.81;5057355;28;20052;-62
2021/06/12 10:48:47;;;;;;;1.83;1.60;;;;;;;36.99;16.81;94370.22;5057473;28;20382;-58
2021/06/12 10:51:26;;;;;;;2.47;1.98;;;;;;;36.95;17.24;94366.88;5060044;28;20398;-57
2021/06/12 10:54:24;;;;;;;2.95;1.70;;;;;;;37.07;17.53;94357.03;5057357;28;20048;-66
2021/06/12 10:56:56;;;;;;;3.92;1.80;;;;;;;37.07;17.34;94360.50;5057099;28;20057;-64
2021/06/12 10:59:40;;;;;;;3.35;1.85;;;;;;;37.13;16.98;94357.91;5057438;28;20056;-66
2021/06/12 11:02:16;;;;;;;4.25;2.10;;;;;;;37.24;17.34;94356.25;5072902;28;20059;-61
2021/06/12 11:05:00;;;;;;;2.42;1.80;;;;;;;36.72;18.13;94360.84;5057348;28;20451;-66
2021/06/12 11:07:29;;;;;;;4.15;3.00;;;;;;;37.13;17.65;94350.50;5056945;28;20090;-66
2021/06/12 11:10:11;;;;;;;9.98;7.82;;;;;;;37.13;17.86;94345.06;5056802;28;20052;-63
2021/06/12 11:12:51;;;;;;;6.10;5.53;;;;;;;36.97;17.91;94359.03;5067638;28;20060;-55
2021/06/12 11:15:21;;;;;;;4.13;3.20;;;;;;;36.84;18.80;94351.03;5069593;28;20335;-54
2021/06/12 11:18:11;;;;;;;5.15;3.53;;;;;;;36.87;19.15;94338.44;5074212;28;20059;-63
2021/06/12 11:20:42;;;;;;;4.53;3.20;;;;;;;36.31;19.72;94347.84;5067041;28;20392;-45
2021/06/12 11:23:19;;;;;;;3.53;2.75;;;;;;;36.72;18.89;94343.75;5057032;28;20064;-52
2021/06/12 11:25:49;;;;;;;4.68;2.72;;;;;;;36.25;19.13;94349.63;5056405;28;20041;-55
2021/06/12 11:28:26;;;;;;;3.47;2.80;;;;;;;36.43;18.83;94344.19;5056327;28;20472;-46
2021/06/12 11:31:14;;;;;;;4.38;2.80;;;;;;;36.17;19.35;94340.97;5067235;28;20056;-51
2021/06/12 11:33:41;;;;;;;5.28;2.67;;;;;;;36.35;19.43;94348.44;5076068;28;20466;-58
2021/06/12 11:36:24;;;;;;;4.05;2.58;;;;;;;35.94;19.88;94342.31;5076429;28;20041;-57
2021/06/12 11:38:58;;;;;;;4.53;2.45;;;;;;;35.54;19.87;94339.59;5076454;28;20367;-55
2021/06/12 11:41:25;;;;;;;2.15;1.95;;;;;;;35.49;19.35;94335.50;5060026;28;20049;-51
2021/06/12 11:43:53;;;;;;;8.60;6.20;;;;;;;34.81;20.06;94342.66;5073409;28;20059;-45
2021/06/12 11:46:33;;;;;;;3.80;2.58;;;;;;;35.15;19.86;94332.94;5056173;28;20048;-65